createdAt,value
2022-07-25T00:02:14.651Z,11.77
2022-07-25T00:07:17.665Z,11.38
2022-07-25T00:12:20.398Z,11.27
2022-07-25T00:22:23.863Z,11.75
2022-07-25T00:27:25.819Z,11.37
2022-07-25T00:32:27.669Z,11.17
2022-07-25T00:37:29.442Z,11.80
2022-07-25T00:42:32.329Z,12.00
2022-07-25T00:52:36.503Z,12.50
2022-07-25T00:57:38.246Z,11.88
2022-07-25T01:02:41.319Z,12.52
2022-07-25T01:07:43.284Z,11.63
2022-07-25T01:12:49.073Z,12.03
2022-07-25T01:17:51.984Z,11.38
2022-07-25T01:22:54.664Z,12.50
2022-07-25T01:32:59.425Z,11.35
2022-07-25T01:38:08.241Z,11.57
2022-07-25T01:43:10.666Z,11.93
2022-07-25T01:48:12.379Z,12.70
2022-07-25T01:53:14.039Z,12.52
2022-07-25T01:58:15.826Z,11.68
2022-07-25T02:03:30.598Z,12.15
2022-07-25T02:08:32.715Z,12.18
2022-07-25T02:13:34.661Z,12.38
2022-07-25T02:18:36.790Z,13.33
2022-07-25T02:23:40.663Z,12.15
2022-07-25T02:28:42.402Z,12.18
2022-07-25T02:33:44.959Z,12.03
2022-07-25T02:38:46.698Z,12.00
2022-07-25T02:43:48.516Z,13.23
2022-07-25T02:48:50.353Z,12.10
2022-07-25T02:53:57.722Z,13.20
2022-07-25T02:59:00.664Z,13.95
2022-07-25T03:04:02.627Z,12.30
2022-07-25T03:09:04.719Z,12.60
2022-07-25T03:14:08.420Z,11.73
2022-07-25T03:19:12.727Z,11.63
2022-07-25T03:24:14.863Z,12.85
2022-07-25T03:29:16.619Z,12.43
2022-07-25T03:34:18.940Z,12.05
2022-07-25T03:39:21.036Z,12.37
2022-07-25T03:44:24.304Z,13.65
2022-07-25T03:49:25.974Z,11.63
2022-07-25T03:54:27.824Z,10.83
2022-07-25T03:59:29.920Z,13.60
2022-07-25T04:04:31.851Z,13.33
2022-07-25T04:09:33.889Z,13.00
2022-07-25T04:14:36.725Z,11.18
2022-07-25T04:19:38.467Z,12.35
2022-07-25T04:24:40.338Z,13.57
2022-07-25T04:29:42.388Z,13.33
2022-07-25T04:34:44.740Z,14.30
2022-07-25T04:39:46.506Z,12.93
2022-07-25T04:44:48.210Z,13.65
2022-07-25T04:49:49.975Z,13.07
2022-07-25T04:54:51.838Z,13.25
2022-07-25T04:59:53.719Z,14.00
2022-07-25T05:04:55.449Z,13.70
2022-07-25T05:09:57.399Z,13.87
2022-07-25T05:14:59.088Z,13.40
2022-07-25T05:20:00.913Z,13.10
2022-07-25T05:25:05.967Z,13.50
2022-07-25T05:30:09.549Z,12.75
2022-07-25T05:35:11.408Z,12.85
2022-07-25T05:40:13.264Z,12.10
2022-07-25T05:45:15.438Z,12.70
2022-07-25T05:50:17.398Z,12.37
2022-07-25T05:55:19.338Z,11.83
2022-07-25T06:00:21.213Z,11.68
2022-07-25T06:05:23.137Z,12.27
2022-07-25T06:10:25.184Z,11.93
2022-07-25T06:15:27.662Z,11.82
2022-07-25T06:20:29.507Z,11.73
2022-07-25T06:25:31.246Z,11.37
2022-07-25T06:30:33.494Z,11.50
2022-07-25T06:35:35.699Z,11.70
2022-07-25T06:40:37.629Z,11.48
2022-07-25T06:45:39.298Z,12.70
2022-07-25T06:50:41.064Z,12.17
2022-07-25T06:55:42.967Z,12.38
2022-07-25T07:00:44.803Z,11.47
2022-07-25T07:05:46.664Z,11.20
2022-07-25T07:10:48.502Z,11.80
2022-07-25T07:15:51.063Z,11.60
2022-07-25T07:20:53.590Z,11.70
2022-07-25T07:25:55.331Z,12.07
2022-07-25T07:36:19.006Z,12.03
2022-07-25T07:41:21.578Z,11.40
2022-07-25T07:46:23.314Z,11.48
2022-07-25T07:51:25.099Z,11.40
2022-07-25T07:56:28.136Z,11.50
2022-07-25T08:01:30.359Z,11.20
2022-07-25T08:06:32.104Z,11.45
2022-07-25T08:11:33.862Z,10.93
2022-07-25T08:16:35.725Z,10.55
2022-07-25T08:21:37.573Z,10.63
2022-07-25T08:26:39.442Z,10.88
2022-07-25T08:31:41.246Z,10.90
2022-07-25T08:36:43.242Z,10.90
2022-07-25T08:41:45.799Z,21.17
2022-07-25T08:46:48.224Z,11.00
2022-07-25T08:51:51.061Z,11.07
2022-07-25T08:56:54.413Z,11.07
2022-07-25T09:01:56.970Z,10.75
2022-07-25T09:06:58.825Z,11.00
2022-07-25T09:12:01.484Z,10.70
2022-07-25T09:17:06.716Z,10.95
2022-07-25T09:22:24.687Z,10.80
2022-07-25T09:27:26.482Z,10.30
2022-07-25T09:32:29.197Z,11.13
2022-07-25T09:37:30.984Z,11.15
2022-07-25T09:42:32.839Z,10.70
2022-07-25T09:47:38.067Z,11.25
2022-07-25T09:52:40.349Z,10.48
2022-07-25T09:57:42.683Z,10.52
2022-07-25T10:02:53.066Z,11.00
2022-07-25T10:07:55.653Z,10.82
2022-07-25T10:13:11.326Z,10.55
2022-07-25T10:18:14.832Z,10.63
2022-07-25T10:23:25.846Z,10.15
2022-07-25T10:28:48.573Z,10.20
2022-07-25T10:33:53.294Z,9.82
2022-07-25T10:38:58.191Z,10.57
2022-07-25T10:44:02.019Z,10.75
2022-07-25T10:49:06.339Z,10.70
2022-07-25T10:54:17.933Z,10.63
2022-07-25T10:59:30.957Z,10.82
2022-07-25T11:04:37.696Z,10.80
2022-07-25T11:09:41.371Z,10.93
2022-07-25T11:14:43.484Z,10.50
2022-07-25T11:19:58.102Z,10.52
2022-07-25T11:25:01.012Z,9.35
2022-07-25T11:30:17.446Z,7.50
2022-07-25T11:35:25.990Z,8.63
2022-07-25T11:40:28.483Z,9.50
2022-07-25T11:45:33.610Z,9.10
2022-07-25T11:50:41.843Z,9.50
2022-07-25T11:55:43.995Z,9.13
2022-07-25T12:00:48.675Z,8.95
2022-07-25T12:05:50.611Z,8.65
2022-07-25T12:10:52.317Z,8.48
2022-07-25T12:15:56.292Z,7.03
2022-07-25T12:20:57.977Z,7.15
2022-07-25T12:26:00.069Z,6.45
2022-07-25T12:31:01.915Z,6.20
2022-07-25T12:36:08.422Z,6.60
2022-07-25T12:41:14.586Z,6.30
2022-07-25T12:46:19.524Z,5.65
2022-07-25T12:51:21.221Z,5.50
2022-07-25T12:56:23.067Z,5.57
2022-07-25T13:01:24.959Z,5.32
2022-07-25T13:06:26.925Z,5.38
2022-07-25T13:11:28.769Z,5.72
2022-07-25T13:16:30.762Z,5.82
2022-07-25T13:21:32.538Z,5.68
2022-07-25T13:26:34.911Z,5.85
2022-07-25T13:31:41.037Z,5.88
2022-07-25T13:36:43.118Z,5.63
2022-07-25T13:41:44.963Z,6.10
2022-07-25T13:46:50.006Z,5.63
2022-07-25T13:51:51.807Z,5.57
2022-07-25T13:56:53.663Z,5.53
2022-07-25T14:01:55.526Z,5.80
2022-07-25T14:06:57.407Z,5.47
2022-07-25T14:11:59.118Z,4.82
2022-07-25T14:17:00.949Z,5.35
2022-07-25T14:22:02.714Z,5.55
2022-07-25T14:27:04.820Z,5.53
2022-07-25T14:32:08.176Z,5.43
2022-07-25T14:37:10.231Z,5.43
2022-07-25T14:42:11.962Z,5.65
2022-07-25T14:47:13.798Z,6.00
2022-07-25T14:52:16.395Z,5.93
2022-07-25T14:57:18.647Z,6.00
2022-07-25T15:02:20.680Z,5.40
2022-07-25T15:07:22.392Z,5.40
2022-07-25T15:12:24.138Z,5.57
2022-07-25T15:17:25.946Z,5.45
2022-07-25T15:22:27.700Z,5.65
2022-07-25T15:27:29.614Z,5.60
2022-07-25T15:32:31.363Z,5.45
2022-07-25T15:37:33.028Z,5.72
2022-07-25T15:42:34.921Z,5.75
2022-07-25T15:47:38.423Z,5.95
2022-07-25T15:52:40.143Z,6.47
2022-07-25T15:57:41.959Z,5.70
2022-07-25T16:02:45.949Z,5.55
2022-07-25T16:07:48.284Z,6.18
2022-07-25T16:12:50.080Z,6.00
2022-07-25T16:17:53.495Z,6.03
2022-07-25T16:22:57.564Z,7.05
2022-07-25T16:27:59.814Z,7.20
2022-07-25T16:33:01.731Z,6.78
2022-07-25T16:38:03.552Z,6.57
2022-07-25T16:43:05.326Z,6.47
2022-07-25T16:48:07.362Z,6.60
2022-07-25T16:53:09.282Z,8.70
2022-07-25T17:03:12.872Z,9.57
2022-07-25T17:08:14.555Z,8.40
2022-07-25T17:13:16.795Z,9.85
2022-07-25T17:18:18.527Z,10.18
2022-07-25T17:23:21.394Z,11.40
2022-07-25T17:28:23.251Z,11.38
2022-07-25T17:33:24.963Z,10.90
2022-07-25T17:38:30.324Z,10.30
2022-07-25T17:43:36.174Z,9.82
2022-07-25T17:48:37.931Z,9.57
2022-07-25T17:53:39.753Z,10.27
2022-07-25T17:58:41.511Z,9.68
2022-07-25T18:03:47.375Z,9.20
2022-07-25T18:08:49.046Z,8.07
2022-07-25T18:13:50.746Z,8.70
2022-07-25T18:18:52.514Z,8.73
2022-07-25T18:23:54.219Z,9.32
2022-07-25T18:28:55.962Z,9.73
2022-07-25T18:33:57.663Z,9.55
2022-07-25T18:38:59.509Z,8.23
2022-07-25T18:44:01.778Z,8.32
2022-07-25T18:54:05.915Z,7.85
2022-07-25T18:59:08.194Z,7.78
2022-07-25T19:04:11.496Z,8.30
2022-07-25T19:09:13.297Z,8.40
2022-07-25T19:14:15.196Z,8.38
2022-07-25T19:19:17.204Z,8.00
2022-07-25T19:24:19.076Z,8.18
2022-07-25T19:29:20.950Z,7.88
2022-07-25T19:34:23.662Z,7.90
2022-07-25T19:39:25.517Z,7.10
2022-07-25T19:44:27.336Z,7.87
2022-07-25T19:49:29.142Z,6.90
2022-07-25T19:54:30.986Z,7.65
2022-07-25T19:59:34.703Z,6.85
2022-07-25T20:04:36.899Z,6.68
2022-07-25T20:09:39.729Z,7.05
2022-07-25T20:14:41.531Z,6.90
2022-07-25T20:19:43.678Z,6.85
2022-07-25T20:24:45.859Z,7.65
2022-07-25T20:29:47.800Z,7.57
2022-07-25T20:34:49.555Z,7.35
2022-07-25T20:39:51.694Z,8.10
2022-07-25T20:44:53.725Z,7.63
2022-07-25T20:49:55.472Z,7.83
2022-07-25T20:54:57.627Z,7.28
2022-07-25T21:00:00.413Z,7.55
2022-07-25T21:05:02.807Z,8.00
2022-07-25T21:10:05.053Z,7.50
2022-07-25T21:15:08.186Z,9.38
2022-07-25T21:20:12.825Z,9.52
2022-07-25T21:25:15.358Z,10.77
2022-07-25T21:30:17.371Z,10.60
2022-07-25T21:35:19.250Z,9.97
2022-07-25T21:40:20.978Z,10.90
2022-07-25T21:45:23.086Z,9.90
2022-07-25T21:50:42.235Z,10.13
2022-07-25T21:55:45.795Z,10.63
2022-07-25T22:00:47.709Z,11.27
2022-07-25T22:05:49.443Z,12.17
2022-07-25T22:10:51.448Z,12.03
2022-07-25T22:15:53.846Z,10.40
2022-07-25T22:20:55.749Z,9.50
2022-07-25T22:25:57.521Z,9.55
2022-07-25T22:30:59.333Z,9.13
2022-07-25T22:36:01.659Z,8.63
2022-07-25T22:46:05.121Z,8.07
2022-07-25T22:51:06.996Z,7.55
2022-07-25T22:56:08.768Z,7.90
2022-07-25T23:01:10.941Z,8.30
2022-07-25T23:06:12.832Z,8.25
2022-07-25T23:11:14.537Z,8.65
2022-07-25T23:16:16.428Z,9.10
2022-07-25T23:21:18.166Z,8.73
2022-07-25T23:26:19.926Z,8.43
2022-07-25T23:31:21.746Z,9.00
2022-07-25T23:36:23.501Z,8.53
2022-07-25T23:41:25.173Z,8.67
2022-07-25T23:46:29.545Z,8.77
2022-07-25T23:51:33.525Z,8.77
2022-07-25T23:56:35.202Z,7.95
